Time;durP1;ratioP1;P1;durP2;ratioP2;P2;SDS_P1;SDS_P2;PMS_P1;PMS_P2;Temp;Humidity;BMP_temperature;BMP_pressure;BME280_temperature;BME280_humidity;BME280_pressure;Samples;Min_cycle;Max_cycle;Signal;HPM_P1;HPM_P2
2023/06/28 00:00:36;;;;;;;2.8;1.3;;;;;;;12.15;78.41;;;;;
2023/06/28 00:11:36;;;;;;;2.8;1.3;;;;;;;12.33;78.21;;;;;
2023/06/28 00:21:36;;;;;;;2.8;1.3;;;;;;;12.49;77.85;;;;;
2023/06/28 00:31:36;;;;;;;3.7;1.1;;;;;;;12.62;77.27;;;;;
2023/06/28 00:41:36;;;;;;;3.7;1.1;;;;;;;12.74;77.05;;;;;
2023/06/28 00:51:36;;;;;;;3.7;1.1;;;;;;;12.62;76.62;;;;;
2023/06/28 01:02:36;;;;;;;2.7;1.4;;;;;;;12.48;76.67;;;;;
2023/06/28 01:12:36;;;;;;;2.7;1.4;;;;;;;12.36;77.14;;;;;
2023/06/28 01:22:36;;;;;;;2.7;1.4;;;;;;;12.19;76.88;;;;;
2023/06/28 01:32:36;;;;;;;3.9;1.6;;;;;;;11.92;77.08;;;;;
2023/06/28 01:42:36;;;;;;;3.9;1.6;;;;;;;11.66;79.47;;;;;
2023/06/28 01:53:36;;;;;;;3.9;1.6;;;;;;;11.53;80.47;;;;;
2023/06/28 02:03:36;;;;;;;2.7;1.5;;;;;;;11.43;80.84;;;;;
2023/06/28 02:13:36;;;;;;;2.7;1.5;;;;;;;11.44;80.78;;;;;
2023/06/28 02:24:36;;;;;;;2.7;1.5;;;;;;;11.44;80.66;;;;;
2023/06/28 02:34:36;;;;;;;2.5;1.2;;;;;;;11.42;80.74;;;;;
2023/06/28 02:44:36;;;;;;;2.5;1.2;;;;;;;11.47;80.65;;;;;
2023/06/28 02:55:36;;;;;;;2.5;1.2;;;;;;;11.6;80.8;;;;;
2023/06/28 03:05:36;;;;;;;3.4;1.1;;;;;;;11.68;80.6;;;;;
2023/06/28 03:15:36;;;;;;;3.4;1.1;;;;;;;11.78;80.34;;;;;
2023/06/28 03:25:36;;;;;;;3.4;1.1;;;;;;;11.9;80.94;;;;;
2023/06/28 03:36:36;;;;;;;4.5;1.4;;;;;;;12.16;79.74;;;;;
2023/06/28 03:46:36;;;;;;;4.5;1.4;;;;;;;12.52;78.87;;;;;
2023/06/28 03:56:36;;;;;;;4.5;1.4;;;;;;;12.82;77.78;;;;;
2023/06/28 04:07:36;;;;;;;3.3;1.3;;;;;;;13;77.16;;;;;
2023/06/28 04:17:36;;;;;;;3.3;1.3;;;;;;;13.29;76.31;;;;;
2023/06/28 04:27:36;;;;;;;3.3;1.3;;;;;;;13.6;75.8;;;;;
2023/06/28 04:38:37;;;;;;;4.7;1.7;;;;;;;14.01;73.54;;;;;
2023/06/28 04:48:36;;;;;;;4.7;1.7;;;;;;;14.3;71.52;;;;;
2023/06/28 04:58:37;;;;;;;4.7;1.7;;;;;;;14.54;71.5;;;;;
2023/06/28 05:08:36;;;;;;;6;2.7;;;;;;;14.64;71.59;;;;;
2023/06/28 05:18:36;;;;;;;6;2.7;;;;;;;14.67;71.18;;;;;
2023/06/28 05:29:36;;;;;;;5.5;2.4;;;;;;;14.96;70.86;;;;;
2023/06/28 05:39:36;;;;;;;5.5;2.4;;;;;;;15.75;69.91;;;;;
2023/06/28 05:50:36;;;;;;;5.5;2.4;;;;;;;16.42;67.29;;;;;
2023/06/28 06:01:36;;;;;;;9.6;2.3;;;;;;;16.07;67.08;;;;;
2023/06/28 06:11:36;;;;;;;9.6;2.3;;;;;;;16.18;67.23;;;;;
2023/06/28 06:21:36;;;;;;;9.6;2.3;;;;;;;16.22;66.82;;;;;
2023/06/28 06:31:36;;;;;;;5.1;2.2;;;;;;;16.7;64.8;;;;;
2023/06/28 06:41:36;;;;;;;5.1;2.2;;;;;;;17.09;63.69;;;;;
2023/06/28 06:51:36;;;;;;;5.1;2.2;;;;;;;17.92;62.63;;;;;
2023/06/28 07:01:36;;;;;;;7.9;3.3;;;;;;;17.62;63.13;;;;;
2023/06/28 07:12:36;;;;;;;7.9;3.3;;;;;;;17.81;62.83;;;;;
2023/06/28 07:22:36;;;;;;;7.9;3.3;;;;;;;18.01;63.36;;;;;
2023/06/28 07:33:36;;;;;;;6.2;2.5;;;;;;;17.8;63.4;;;;;
2023/06/28 07:43:36;;;;;;;6.2;2.5;;;;;;;17.23;64.18;;;;;
2023/06/28 07:54:36;;;;;;;6.2;2.5;;;;;;;17.35;65.84;;;;;
2023/06/28 08:05:36;;;;;;;6.7;2.5;;;;;;;18.52;64.45;;;;;
2023/06/28 08:16:36;;;;;;;6.7;2.5;;;;;;;18.84;62.07;;;;;
2023/06/28 08:27:36;;;;;;;6.7;2.5;;;;;;;18.98;60.91;;;;;
2023/06/28 08:38:36;;;;;;;6.9;3.1;;;;;;;19.25;58.57;;;;;
2023/06/28 08:48:36;;;;;;;6.9;3.1;;;;;;;19.73;58.35;;;;;
2023/06/28 08:58:36;;;;;;;6.9;3.1;;;;;;;20.19;56.54;;;;;
2023/06/28 09:09:36;;;;;;;6.8;2.5;;;;;;;19.38;57.41;;;;;
2023/06/28 09:19:36;;;;;;;6.8;2.5;;;;;;;19.15;58.31;;;;;
2023/06/28 09:30:38;;;;;;;5;2.4;;;;;;;19.82;58.08;;;;;
2023/06/28 09:41:36;;;;;;;5;2.4;;;;;;;20.78;54.18;;;;;
2023/06/28 09:52:36;;;;;;;5;2.4;;;;;;;21.41;52.87;;;;;
2023/06/28 10:02:36;;;;;;;8.1;2.3;;;;;;;21.12;50.66;;;;;
2023/06/28 10:12:36;;;;;;;8.1;2.3;;;;;;;20.99;49.7;;;;;
2023/06/28 10:23:37;;;;;;;8.1;2.3;;;;;;;21.24;45.76;;;;;
2023/06/28 10:34:36;;;;;;;6.5;2.1;;;;;;;21.7;47.37;;;;;
2023/06/28 10:44:36;;;;;;;6.5;2.1;;;;;;;19.56;53.3;;;;;
2023/06/28 10:54:36;;;;;;;6.5;2.1;;;;;;;17.91;59.54;;;;;
2023/06/28 11:04:36;;;;;;;4.6;2;;;;;;;17.37;63.51;;;;;
2023/06/28 11:14:36;;;;;;;4.6;2;;;;;;;17.7;64.41;;;;;
2023/06/28 11:24:36;;;;;;;4.6;2;;;;;;;18.35;62.18;;;;;
2023/06/28 11:35:36;;;;;;;4.6;2.1;;;;;;;19.84;57.99;;;;;
2023/06/28 11:46:36;;;;;;;4.6;2.1;;;;;;;20.29;51.11;;;;;
2023/06/28 11:56:36;;;;;;;4.6;2.1;;;;;;;20.49;49.6;;;;;
2023/06/28 12:06:36;;;;;;;4;1.7;;;;;;;20.48;47.37;;;;;
2023/06/28 12:17:36;;;;;;;4;1.7;;;;;;;19.1;49.24;;;;;
2023/06/28 12:28:36;;;;;;;4;1.7;;;;;;;18.45;51.26;;;;;
2023/06/28 12:39:36;;;;;;;4;1.6;;;;;;;18.63;52.24;;;;;
2023/06/28 12:49:37;;;;;;;4;1.6;;;;;;;19.02;52.25;;;;;
2023/06/28 12:59:36;;;;;;;4.1;1.5;;;;;;;19.9;51.93;;;;;
2023/06/28 13:09:36;;;;;;;4.1;1.5;;;;;;;20.39;49.9;;;;;
2023/06/28 13:20:36;;;;;;;4.1;1.5;;;;;;;21.41;48.86;;;;;
2023/06/28 13:30:36;;;;;;;4.7;1.8;;;;;;;20.93;50.74;;;;;
2023/06/28 13:40:37;;;;;;;4.7;1.8;;;;;;;21.15;52.37;;;;;
2023/06/28 13:50:36;;;;;;;4.7;1.8;;;;;;;21.91;49.41;;;;;
2023/06/28 14:01:36;;;;;;;4.9;2.1;;;;;;;22.36;50.18;;;;;
2023/06/28 14:12:36;;;;;;;4.9;2.1;;;;;;;22.25;43.15;;;;;
2023/06/28 14:22:36;;;;;;;4.9;2.1;;;;;;;22.3;41.59;;;;;
2023/06/28 14:33:36;;;;;;;4.5;1.6;;;;;;;23.24;40.88;;;;;
2023/06/28 14:43:36;;;;;;;4.5;1.6;;;;;;;22.47;42.66;;;;;
2023/06/28 14:54:36;;;;;;;4.5;1.6;;;;;;;21.64;45.94;;;;;
2023/06/28 15:04:36;;;;;;;5.5;1.9;;;;;;;20.75;49.06;;;;;
2023/06/28 15:14:37;;;;;;;5.5;1.9;;;;;;;19.59;51.27;;;;;
2023/06/28 15:24:36;;;;;;;5.5;1.9;;;;;;;19.1;51.41;;;;;
2023/06/28 15:34:36;;;;;;;5.6;1.9;;;;;;;18.41;54.03;;;;;
2023/06/28 15:45:37;;;;;;;5.6;1.9;;;;;;;17.83;56.99;;;;;
2023/06/28 15:56:36;;;;;;;5.6;1.9;;;;;;;17.9;57.76;;;;;
2023/06/28 16:07:36;;;;;;;9;2;;;;;;;17.28;60.57;;;;;
2023/06/28 16:18:36;;;;;;;9;2;;;;;;;16.73;63.01;;;;;
2023/06/28 16:28:36;;;;;;;9;2;;;;;;;16.57;64.86;;;;;
2023/06/28 16:38:36;;;;;;;5.1;1.9;;;;;;;16.48;65.08;;;;;
2023/06/28 16:48:36;;;;;;;5.1;1.9;;;;;;;16;70.26;;;;;
2023/06/28 16:59:37;;;;;;;6.1;2.8;;;;;;;15.34;74.54;;;;;
2023/06/28 17:09:36;;;;;;;6.1;2.8;;;;;;;15.05;77.95;;;;;
2023/06/28 17:19:36;;;;;;;6.1;2.8;;;;;;;14.84;78.48;;;;;
2023/06/28 17:29:36;;;;;;;6.7;3.5;;;;;;;14.75;79.74;;;;;
2023/06/28 17:39:36;;;;;;;6.7;3.5;;;;;;;14.65;80.89;;;;;
2023/06/28 17:50:36;;;;;;;6.7;3.5;;;;;;;14.65;81.17;;;;;
2023/06/28 18:00:36;;;;;;;10.2;3.2;;;;;;;14.62;82.81;;;;;
2023/06/28 18:10:36;;;;;;;10.2;3.2;;;;;;;14.4;83.9;;;;;
2023/06/28 18:21:36;;;;;;;10.2;3.2;;;;;;;14.04;85.58;;;;;
2023/06/28 18:31:36;;;;;;;10.1;3.5;;;;;;;13.92;86.39;;;;;
2023/06/28 18:41:36;;;;;;;10.1;3.5;;;;;;;14.02;85.85;;;;;
2023/06/28 18:52:36;;;;;;;10.1;3.5;;;;;;;13.89;86.05;;;;;
2023/06/28 19:02:36;;;;;;;8.8;3.2;;;;;;;13.96;85.51;;;;;
2023/06/28 19:12:36;;;;;;;8.8;3.2;;;;;;;13.95;85.57;;;;;
2023/06/28 19:22:36;;;;;;;8.8;3.2;;;;;;;14.04;85.1;;;;;
2023/06/28 19:32:37;;;;;;;6.2;3.4;;;;;;;14.05;85.13;;;;;
2023/06/28 19:43:37;;;;;;;6.2;3.4;;;;;;;13.89;86.1;;;;;
2023/06/28 19:53:37;;;;;;;6.2;3.4;;;;;;;13.85;86.75;;;;;
2023/06/28 20:04:36;;;;;;;5.3;2.7;;;;;;;13.7;88.17;;;;;
2023/06/28 20:14:36;;;;;;;5.3;2.7;;;;;;;13.67;88.37;;;;;
2023/06/28 20:24:36;;;;;;;5.3;2.7;;;;;;;13.62;89.29;;;;;
2023/06/28 20:35:36;;;;;;;7.7;2.5;;;;;;;13.77;89.11;;;;;
2023/06/28 20:45:37;;;;;;;7.7;2.5;;;;;;;13.8;89.31;;;;;
2023/06/28 20:55:36;;;;;;;7.7;2.5;;;;;;;13.82;89.49;;;;;
2023/06/28 21:05:37;;;;;;;7.1;4;;;;;;;13.9;89.41;;;;;
2023/06/28 21:15:36;;;;;;;7.1;4;;;;;;;13.95;89.35;;;;;
2023/06/28 21:26:36;;;;;;;7.1;4;;;;;;;14.03;89.38;;;;;
2023/06/28 21:36:36;;;;;;;10.7;5.6;;;;;;;14.02;89.63;;;;;
2023/06/28 21:46:36;;;;;;;10.7;5.6;;;;;;;14.02;90.15;;;;;
2023/06/28 21:56:36;;;;;;;10.7;5.6;;;;;;;14.02;90.57;;;;;
2023/06/28 22:07:36;;;;;;;9.3;6.9;;;;;;;14.15;90.23;;;;;
2023/06/28 22:18:37;;;;;;;9.3;6.9;;;;;;;14.21;90.03;;;;;
2023/06/28 22:29:37;;;;;;;11.1;5.9;;;;;;;14.31;90.22;;;;;
2023/06/28 22:39:36;;;;;;;11.1;5.9;;;;;;;14.29;89.99;;;;;
2023/06/28 22:50:37;;;;;;;11.1;5.9;;;;;;;14.42;89.99;;;;;
2023/06/28 23:00:36;;;;;;;8.8;6.1;;;;;;;14.43;89.8;;;;;
2023/06/28 23:11:36;;;;;;;8.8;6.1;;;;;;;14.42;90.25;;;;;
2023/06/28 23:21:36;;;;;;;8.8;6.1;;;;;;;14.54;90.06;;;;;
2023/06/28 23:31:37;;;;;;;9.8;7;;;;;;;14.51;90.5;;;;;
2023/06/28 23:42:38;;;;;;;9.8;7;;;;;;;14.56;90.81;;;;;
2023/06/28 23:52:38;;;;;;;9.8;7;;;;;;;14.52;91.27;;;;;
